首页
METAR-TAF:

METAR-TAF

机场 :

库格鲁克图克, 努那武特, 加拿大

纬度: 67-49N, 经度: 115-08W, 海拔: 22米

当前天气观测

该预报发布于21分钟前的06:00 UTC
风速9节,风向
温度 -26°C
湿度 76%
气压 1016 hPa
能見度: 16.1公里
阴天层高于2300英尺
小雪

METAR: CYCO 190600Z 08009KT 10SM -SN OVC023 M26/M29 A3001 RMK SC8 SLP169

时间: 23:21 (06:21 UTC)

预报

该预报发布于5小时和43分钟前的00:38 UTC
预报有效从19日的 01点(UTC)到 19日的 13点(UTC)
风速5节,风向东转东北
能見度: 10公里
少量云层高于2000英尺
多云层高于15000英尺
短暂存在
从 19日的 01点(UTC)到 19日的 13点(UTC)
能見度: 10公里
多云层高于2000英尺
阴天层高于15000英尺
小雪
成为
从 19日的 09点(UTC)到 19日的 11点(UTC)
风速15节,风向

TAF: CYCO 190038Z 1901/1913 07005KT P6SM FEW020 BKN150 TEMPO 1901/1913 P6SM -SN BKN020 OVC150 BECMG 1909/1911 09015KT RMK NXT FCST BY 190700Z

超过4000个机场的气象观测和天气预报(METAR&TAF报告)。

可查询的气象台以黄色和红色小点在地图上表示。

将鼠标移到小点上方,可查看气象台名称。

然后点击查看天气观测和预报。

如需切换地图:点击带黑十字的绿色按钮放大地图;点击带横线的绿色按钮缩小地图;或者点击绿色箭头查看邻近地区的地图。


METAR-TAF: